sensor_id;sensor_type;location;lat;lon;timestamp;temperature;humidity
22526;DHT22;11429;50.842;4.386;2023-05-10T00:00:58;13.70;99.90
22526;DHT22;11429;50.842;4.386;2023-05-10T00:03:23;13.50;99.90
22526;DHT22;11429;50.842;4.386;2023-05-10T00:05:49;13.40;99.90
22526;DHT22;11429;50.842;4.386;2023-05-10T00:08:15;13.40;99.90
22526;DHT22;11429;50.842;4.386;2023-05-10T00:10:41;13.50;99.90
22526;DHT22;11429;50.842;4.386;2023-05-10T00:13:06;13.50;99.90
22526;DHT22;11429;50.842;4.386;2023-05-10T00:15:32;13.50;99.90
22526;DHT22;11429;50.842;4.386;2023-05-10T00:17:58;13.50;99.90
22526;DHT22;11429;50.842;4.386;2023-05-10T00:20:23;13.50;99.90
22526;DHT22;11429;50.842;4.386;2023-05-10T00:22:49;13.60;99.90
22526;DHT22;11429;50.842;4.386;2023-05-10T00:25:15;13.60;99.90
22526;DHT22;11429;50.842;4.386;2023-05-10T00:27:41;13.60;99.90
22526;DHT22;11429;50.842;4.386;2023-05-10T00:30:07;13.50;99.90
22526;DHT22;11429;50.842;4.386;2023-05-10T00:32:32;13.60;99.90
22526;DHT22;11429;50.842;4.386;2023-05-10T00:34:58;13.60;99.90
22526;DHT22;11429;50.842;4.386;2023-05-10T00:37:24;13.60;99.90
22526;DHT22;11429;50.842;4.386;2023-05-10T00:39:50;13.50;99.90
22526;DHT22;11429;50.842;4.386;2023-05-10T00:42:15;13.40;99.90
22526;DHT22;11429;50.842;4.386;2023-05-10T00:44:41;13.50;99.90
22526;DHT22;11429;50.842;4.386;2023-05-10T00:47:07;13.60;99.90
22526;DHT22;11429;50.842;4.386;2023-05-10T00:49:34;13.70;99.90
22526;DHT22;11429;50.842;4.386;2023-05-10T00:52:00;13.70;99.90
22526;DHT22;11429;50.842;4.386;2023-05-10T00:54:27;13.70;99.90
22526;DHT22;11429;50.842;4.386;2023-05-10T00:56:53;13.70;99.90
22526;DHT22;11429;50.842;4.386;2023-05-10T00:59:19;13.60;99.90
22526;DHT22;11429;50.842;4.386;2023-05-10T01:01:45;13.70;99.90
22526;DHT22;11429;50.842;4.386;2023-05-10T01:04:14;13.70;99.90
22526;DHT22;11429;50.842;4.386;2023-05-10T01:06:41;13.80;99.90
22526;DHT22;11429;50.842;4.386;2023-05-10T01:09:07;13.70;99.90
22526;DHT22;11429;50.842;4.386;2023-05-10T01:11:37;13.90;99.90
22526;DHT22;11429;50.842;4.386;2023-05-10T01:14:04;13.80;99.90
22526;DHT22;11429;50.842;4.386;2023-05-10T01:16:38;13.80;99.90
22526;DHT22;11429;50.842;4.386;2023-05-10T01:19:22;13.70;99.90
22526;DHT22;11429;50.842;4.386;2023-05-10T01:22:25;13.70;99.90
22526;DHT22;11429;50.842;4.386;2023-05-10T01:25:24;13.80;99.90
22526;DHT22;11429;50.842;4.386;2023-05-10T01:33:55;13.60;99.90
22526;DHT22;11429;50.842;4.386;2023-05-10T01:36:35;13.90;99.90
22526;DHT22;11429;50.842;4.386;2023-05-10T01:39:19;13.90;99.90
22526;DHT22;11429;50.842;4.386;2023-05-10T01:46:56;13.60;99.90
22526;DHT22;11429;50.842;4.386;2023-05-10T01:49:26;13.60;99.90
22526;DHT22;11429;50.842;4.386;2023-05-10T01:51:57;13.60;99.90
22526;DHT22;11429;50.842;4.386;2023-05-10T01:54:24;13.60;99.90
22526;DHT22;11429;50.842;4.386;2023-05-10T01:56:55;13.50;99.90
22526;DHT22;11429;50.842;4.386;2023-05-10T01:59:27;13.60;99.90
22526;DHT22;11429;50.842;4.386;2023-05-10T02:01:57;13.60;99.90
22526;DHT22;11429;50.842;4.386;2023-05-10T02:04:24;13.50;99.90
22526;DHT22;11429;50.842;4.386;2023-05-10T02:06:51;13.70;99.90
22526;DHT22;11429;50.842;4.386;2023-05-10T02:09:18;13.70;99.90
22526;DHT22;11429;50.842;4.386;2023-05-10T02:11:48;13.60;99.90
22526;DHT22;11429;50.842;4.386;2023-05-10T02:14:15;13.60;99.90
22526;DHT22;11429;50.842;4.386;2023-05-10T02:16:42;13.60;99.90
22526;DHT22;11429;50.842;4.386;2023-05-10T02:19:09;13.50;99.90
22526;DHT22;11429;50.842;4.386;2023-05-10T02:21:36;13.60;99.90
22526;DHT22;11429;50.842;4.386;2023-05-10T02:24:03;13.60;99.90
22526;DHT22;11429;50.842;4.386;2023-05-10T02:26:30;13.60;99.90
22526;DHT22;11429;50.842;4.386;2023-05-10T02:28:57;13.50;99.90
22526;DHT22;11429;50.842;4.386;2023-05-10T02:31:24;13.50;99.90
22526;DHT22;11429;50.842;4.386;2023-05-10T02:33:50;13.60;99.90
22526;DHT22;11429;50.842;4.386;2023-05-10T02:36:17;13.60;99.90
22526;DHT22;11429;50.842;4.386;2023-05-10T02:38:44;13.50;99.90
22526;DHT22;11429;50.842;4.386;2023-05-10T02:41:12;13.50;99.90
22526;DHT22;11429;50.842;4.386;2023-05-10T02:43:39;13.50;99.90
22526;DHT22;11429;50.842;4.386;2023-05-10T02:46:06;13.40;99.90
22526;DHT22;11429;50.842;4.386;2023-05-10T02:48:32;13.40;99.90
22526;DHT22;11429;50.842;4.386;2023-05-10T02:51:03;13.60;99.90
22526;DHT22;11429;50.842;4.386;2023-05-10T02:53:35;13.50;99.90
22526;DHT22;11429;50.842;4.386;2023-05-10T02:56:05;13.60;99.90
22526;DHT22;11429;50.842;4.386;2023-05-10T02:58:32;13.50;99.90
22526;DHT22;11429;50.842;4.386;2023-05-10T03:00:59;13.50;99.90
22526;DHT22;11429;50.842;4.386;2023-05-10T03:03:25;13.60;99.90
22526;DHT22;11429;50.842;4.386;2023-05-10T03:05:51;13.40;99.90
22526;DHT22;11429;50.842;4.386;2023-05-10T03:08:19;13.50;99.90
22526;DHT22;11429;50.842;4.386;2023-05-10T03:11:01;13.50;99.90
22526;DHT22;11429;50.842;4.386;2023-05-10T03:13:48;13.50;99.90
22526;DHT22;11429;50.842;4.386;2023-05-10T03:16:24;13.40;99.90
22526;DHT22;11429;50.842;4.386;2023-05-10T03:19:17;13.40;99.90
22526;DHT22;11429;50.842;4.386;2023-05-10T03:21:49;13.40;99.90
22526;DHT22;11429;50.842;4.386;2023-05-10T03:24:18;13.40;99.90
22526;DHT22;11429;50.842;4.386;2023-05-10T03:26:45;13.40;99.90
22526;DHT22;11429;50.842;4.386;2023-05-10T03:29:13;13.50;99.90
22526;DHT22;11429;50.842;4.386;2023-05-10T03:31:40;13.40;99.90
22526;DHT22;11429;50.842;4.386;2023-05-10T03:34:05;13.30;99.90
22526;DHT22;11429;50.842;4.386;2023-05-10T03:36:32;13.30;99.90
22526;DHT22;11429;50.842;4.386;2023-05-10T03:38:58;13.30;99.90
22526;DHT22;11429;50.842;4.386;2023-05-10T03:41:24;13.30;99.90
22526;DHT22;11429;50.842;4.386;2023-05-10T03:43:51;13.40;99.90
22526;DHT22;11429;50.842;4.386;2023-05-10T03:46:16;13.30;99.90
22526;DHT22;11429;50.842;4.386;2023-05-10T03:48:42;13.30;99.90
22526;DHT22;11429;50.842;4.386;2023-05-10T03:51:08;13.30;99.90
22526;DHT22;11429;50.842;4.386;2023-05-10T03:53:33;13.20;99.90
22526;DHT22;11429;50.842;4.386;2023-05-10T03:55:59;13.20;99.90
22526;DHT22;11429;50.842;4.386;2023-05-10T03:58:25;13.20;99.90
22526;DHT22;11429;50.842;4.386;2023-05-10T04:00:51;13.30;99.90
22526;DHT22;11429;50.842;4.386;2023-05-10T04:03:17;13.30;99.90
22526;DHT22;11429;50.842;4.386;2023-05-10T04:05:43;13.40;99.90
22526;DHT22;11429;50.842;4.386;2023-05-10T04:08:09;13.30;99.90
22526;DHT22;11429;50.842;4.386;2023-05-10T04:10:35;13.40;99.90
22526;DHT22;11429;50.842;4.386;2023-05-10T04:13:00;13.40;99.90
22526;DHT22;11429;50.842;4.386;2023-05-10T04:15:26;13.20;99.90
22526;DHT22;11429;50.842;4.386;2023-05-10T04:17:52;13.20;99.90
22526;DHT22;11429;50.842;4.386;2023-05-10T04:20:19;13.20;99.90
22526;DHT22;11429;50.842;4.386;2023-05-10T04:22:44;13.20;99.90
22526;DHT22;11429;50.842;4.386;2023-05-10T04:25:10;13.20;99.90
22526;DHT22;11429;50.842;4.386;2023-05-10T04:27:36;13.20;99.90
22526;DHT22;11429;50.842;4.386;2023-05-10T04:30:02;13.10;99.90
22526;DHT22;11429;50.842;4.386;2023-05-10T04:32:28;13.10;99.90
22526;DHT22;11429;50.842;4.386;2023-05-10T04:34:54;13.20;99.90
22526;DHT22;11429;50.842;4.386;2023-05-10T04:37:20;13.30;99.90
22526;DHT22;11429;50.842;4.386;2023-05-10T04:39:46;13.30;99.90
22526;DHT22;11429;50.842;4.386;2023-05-10T04:42:12;13.20;99.90
22526;DHT22;11429;50.842;4.386;2023-05-10T04:44:40;13.10;99.90
22526;DHT22;11429;50.842;4.386;2023-05-10T04:47:06;13.10;99.90
22526;DHT22;11429;50.842;4.386;2023-05-10T04:49:31;13.10;99.90
22526;DHT22;11429;50.842;4.386;2023-05-10T04:51:57;13.20;99.90
22526;DHT22;11429;50.842;4.386;2023-05-10T04:54:23;13.10;99.90
22526;DHT22;11429;50.842;4.386;2023-05-10T04:56:49;13.30;99.90
22526;DHT22;11429;50.842;4.386;2023-05-10T04:59:15;13.30;99.90
22526;DHT22;11429;50.842;4.386;2023-05-10T05:01:40;13.30;99.90
22526;DHT22;11429;50.842;4.386;2023-05-10T05:04:06;13.30;99.90
22526;DHT22;11429;50.842;4.386;2023-05-10T05:06:32;13.30;99.90
22526;DHT22;11429;50.842;4.386;2023-05-10T05:08:58;13.40;99.90
22526;DHT22;11429;50.842;4.386;2023-05-10T05:11:24;13.20;99.90
22526;DHT22;11429;50.842;4.386;2023-05-10T05:13:50;13.10;99.90
22526;DHT22;11429;50.842;4.386;2023-05-10T05:16:16;13.10;99.90
22526;DHT22;11429;50.842;4.386;2023-05-10T05:18:42;13.10;99.90
22526;DHT22;11429;50.842;4.386;2023-05-10T05:21:18;13.10;99.90
22526;DHT22;11429;50.842;4.386;2023-05-10T05:23:44;13.10;99.90
22526;DHT22;11429;50.842;4.386;2023-05-10T05:26:10;13.20;99.90
22526;DHT22;11429;50.842;4.386;2023-05-10T05:28:37;13.20;99.90
22526;DHT22;11429;50.842;4.386;2023-05-10T05:31:06;13.30;99.90
22526;DHT22;11429;50.842;4.386;2023-05-10T05:33:33;13.30;99.90
22526;DHT22;11429;50.842;4.386;2023-05-10T05:36:03;13.40;99.90
22526;DHT22;11429;50.842;4.386;2023-05-10T05:38:29;13.40;99.90
22526;DHT22;11429;50.842;4.386;2023-05-10T05:40:54;13.30;99.90
22526;DHT22;11429;50.842;4.386;2023-05-10T05:43:20;13.50;99.90
22526;DHT22;11429;50.842;4.386;2023-05-10T05:45:46;13.40;99.90
22526;DHT22;11429;50.842;4.386;2023-05-10T05:48:11;13.40;99.90
22526;DHT22;11429;50.842;4.386;2023-05-10T05:50:37;13.60;99.90
22526;DHT22;11429;50.842;4.386;2023-05-10T05:53:03;13.50;99.90
22526;DHT22;11429;50.842;4.386;2023-05-10T05:55:28;13.40;99.90
22526;DHT22;11429;50.842;4.386;2023-05-10T05:57:55;13.30;99.90
22526;DHT22;11429;50.842;4.386;2023-05-10T06:00:20;13.10;99.90
22526;DHT22;11429;50.842;4.386;2023-05-10T06:02:47;13.10;99.90
22526;DHT22;11429;50.842;4.386;2023-05-10T06:05:13;13.20;99.90
22526;DHT22;11429;50.842;4.386;2023-05-10T06:07:40;13.10;99.90
22526;DHT22;11429;50.842;4.386;2023-05-10T06:10:09;13.10;99.90
22526;DHT22;11429;50.842;4.386;2023-05-10T06:12:35;13.10;99.90
22526;DHT22;11429;50.842;4.386;2023-05-10T06:15:01;13.00;99.90
22526;DHT22;11429;50.842;4.386;2023-05-10T06:17:27;13.20;99.90
22526;DHT22;11429;50.842;4.386;2023-05-10T06:19:54;13.20;99.90
22526;DHT22;11429;50.842;4.386;2023-05-10T06:22:19;13.30;99.90
22526;DHT22;11429;50.842;4.386;2023-05-10T06:24:47;13.20;99.90
22526;DHT22;11429;50.842;4.386;2023-05-10T06:27:12;13.20;99.90
22526;DHT22;11429;50.842;4.386;2023-05-10T06:29:38;13.30;99.90
22526;DHT22;11429;50.842;4.386;2023-05-10T06:32:04;13.40;99.90
22526;DHT22;11429;50.842;4.386;2023-05-10T06:34:30;13.30;99.90
22526;DHT22;11429;50.842;4.386;2023-05-10T06:36:57;13.30;99.90
22526;DHT22;11429;50.842;4.386;2023-05-10T06:39:22;13.20;99.90
22526;DHT22;11429;50.842;4.386;2023-05-10T06:41:48;13.20;99.90
22526;DHT22;11429;50.842;4.386;2023-05-10T06:44:14;13.10;99.90
22526;DHT22;11429;50.842;4.386;2023-05-10T06:46:40;13.20;99.90
22526;DHT22;11429;50.842;4.386;2023-05-10T06:49:06;13.10;99.90
22526;DHT22;11429;50.842;4.386;2023-05-10T06:51:32;13.30;99.90
22526;DHT22;11429;50.842;4.386;2023-05-10T06:53:58;13.40;99.90
22526;DHT22;11429;50.842;4.386;2023-05-10T06:56:24;13.40;99.90
22526;DHT22;11429;50.842;4.386;2023-05-10T06:58:49;13.50;99.90
22526;DHT22;11429;50.842;4.386;2023-05-10T07:01:15;13.50;99.90
22526;DHT22;11429;50.842;4.386;2023-05-10T07:03:41;13.50;99.90
22526;DHT22;11429;50.842;4.386;2023-05-10T07:06:06;13.40;99.90
22526;DHT22;11429;50.842;4.386;2023-05-10T07:08:35;13.60;99.90
22526;DHT22;11429;50.842;4.386;2023-05-10T07:11:04;13.70;99.90
22526;DHT22;11429;50.842;4.386;2023-05-10T07:13:31;13.50;99.90
22526;DHT22;11429;50.842;4.386;2023-05-10T07:15:57;13.50;99.90
22526;DHT22;11429;50.842;4.386;2023-05-10T07:18:24;13.40;99.90
22526;DHT22;11429;50.842;4.386;2023-05-10T07:20:50;13.40;99.90
22526;DHT22;11429;50.842;4.386;2023-05-10T07:23:15;13.30;99.90
22526;DHT22;11429;50.842;4.386;2023-05-10T07:25:45;13.20;99.90
22526;DHT22;11429;50.842;4.386;2023-05-10T07:28:11;13.30;99.90
22526;DHT22;11429;50.842;4.386;2023-05-10T07:30:37;13.10;99.90
22526;DHT22;11429;50.842;4.386;2023-05-10T07:33:02;13.10;99.90
22526;DHT22;11429;50.842;4.386;2023-05-10T07:35:28;13.30;99.90
22526;DHT22;11429;50.842;4.386;2023-05-10T07:37:54;13.20;99.90
22526;DHT22;11429;50.842;4.386;2023-05-10T07:40:19;13.20;99.90
22526;DHT22;11429;50.842;4.386;2023-05-10T07:42:45;13.20;99.90
22526;DHT22;11429;50.842;4.386;2023-05-10T07:45:11;13.20;99.90
22526;DHT22;11429;50.842;4.386;2023-05-10T07:47:36;13.20;99.90
22526;DHT22;11429;50.842;4.386;2023-05-10T07:50:02;13.20;99.90
22526;DHT22;11429;50.842;4.386;2023-05-10T07:52:28;13.30;99.90
22526;DHT22;11429;50.842;4.386;2023-05-10T07:54:54;13.00;99.90
22526;DHT22;11429;50.842;4.386;2023-05-10T07:57:20;13.20;99.90
22526;DHT22;11429;50.842;4.386;2023-05-10T07:59:45;13.20;99.90
22526;DHT22;11429;50.842;4.386;2023-05-10T08:02:12;13.30;99.90
22526;DHT22;11429;50.842;4.386;2023-05-10T08:04:37;13.40;99.90
22526;DHT22;11429;50.842;4.386;2023-05-10T08:07:03;13.50;99.90
22526;DHT22;11429;50.842;4.386;2023-05-10T08:09:28;13.50;99.90
22526;DHT22;11429;50.842;4.386;2023-05-10T08:11:54;13.60;99.90
22526;DHT22;11429;50.842;4.386;2023-05-10T08:14:20;13.70;99.90
22526;DHT22;11429;50.842;4.386;2023-05-10T08:16:46;13.60;99.90
22526;DHT22;11429;50.842;4.386;2023-05-10T08:19:12;13.70;99.90
22526;DHT22;11429;50.842;4.386;2023-05-10T08:21:38;13.80;99.90
22526;DHT22;11429;50.842;4.386;2023-05-10T08:24:05;13.90;99.90
22526;DHT22;11429;50.842;4.386;2023-05-10T08:26:32;13.90;99.90
22526;DHT22;11429;50.842;4.386;2023-05-10T08:28:58;13.90;99.90
22526;DHT22;11429;50.842;4.386;2023-05-10T08:31:23;13.90;99.90
22526;DHT22;11429;50.842;4.386;2023-05-10T08:33:49;14.00;99.90
22526;DHT22;11429;50.842;4.386;2023-05-10T08:36:16;14.00;99.90
22526;DHT22;11429;50.842;4.386;2023-05-10T08:38:50;14.10;99.90
22526;DHT22;11429;50.842;4.386;2023-05-10T08:41:16;14.10;99.90
22526;DHT22;11429;50.842;4.386;2023-05-10T08:43:43;14.10;99.90
22526;DHT22;11429;50.842;4.386;2023-05-10T08:46:17;14.10;99.90
22526;DHT22;11429;50.842;4.386;2023-05-10T08:48:47;14.00;99.90
22526;DHT22;11429;50.842;4.386;2023-05-10T08:51:34;14.00;99.90
22526;DHT22;11429;50.842;4.386;2023-05-10T08:54:01;14.00;99.90
22526;DHT22;11429;50.842;4.386;2023-05-10T08:56:27;14.20;99.90
22526;DHT22;11429;50.842;4.386;2023-05-10T08:58:53;14.30;99.90
22526;DHT22;11429;50.842;4.386;2023-05-10T09:01:21;14.10;99.90
22526;DHT22;11429;50.842;4.386;2023-05-10T09:03:47;14.10;99.90
22526;DHT22;11429;50.842;4.386;2023-05-10T09:06:14;14.40;99.90
22526;DHT22;11429;50.842;4.386;2023-05-10T09:08:41;14.30;99.90
22526;DHT22;11429;50.842;4.386;2023-05-10T09:11:08;14.10;99.90
22526;DHT22;11429;50.842;4.386;2023-05-10T09:13:36;14.20;99.90
22526;DHT22;11429;50.842;4.386;2023-05-10T09:16:03;14.40;99.90
22526;DHT22;11429;50.842;4.386;2023-05-10T09:18:29;14.40;99.90
22526;DHT22;11429;50.842;4.386;2023-05-10T09:20:55;14.20;99.90
22526;DHT22;11429;50.842;4.386;2023-05-10T09:23:20;14.10;99.90
22526;DHT22;11429;50.842;4.386;2023-05-10T09:25:46;13.90;99.90
22526;DHT22;11429;50.842;4.386;2023-05-10T09:28:12;14.10;99.90
22526;DHT22;11429;50.842;4.386;2023-05-10T09:30:38;13.90;99.90
22526;DHT22;11429;50.842;4.386;2023-05-10T09:33:04;13.80;99.90
22526;DHT22;11429;50.842;4.386;2023-05-10T09:35:32;13.90;99.90
22526;DHT22;11429;50.842;4.386;2023-05-10T09:38:04;13.90;99.90
22526;DHT22;11429;50.842;4.386;2023-05-10T09:40:31;14.00;99.90
22526;DHT22;11429;50.842;4.386;2023-05-10T09:43:06;14.00;99.90
22526;DHT22;11429;50.842;4.386;2023-05-10T09:45:33;13.80;99.90
22526;DHT22;11429;50.842;4.386;2023-05-10T09:48:01;13.70;99.90
22526;DHT22;11429;50.842;4.386;2023-05-10T09:50:29;14.00;99.90
22526;DHT22;11429;50.842;4.386;2023-05-10T09:53:00;14.10;99.90
22526;DHT22;11429;50.842;4.386;2023-05-10T09:55:44;13.90;99.90
22526;DHT22;11429;50.842;4.386;2023-05-10T09:58:11;13.80;99.90
22526;DHT22;11429;50.842;4.386;2023-05-10T10:00:39;13.70;99.90
22526;DHT22;11429;50.842;4.386;2023-05-10T10:03:06;13.60;99.90
22526;DHT22;11429;50.842;4.386;2023-05-10T10:05:36;13.70;99.90
22526;DHT22;11429;50.842;4.386;2023-05-10T10:08:06;13.90;99.90
22526;DHT22;11429;50.842;4.386;2023-05-10T10:10:32;13.80;99.90
22526;DHT22;11429;50.842;4.386;2023-05-10T10:12:59;13.90;99.90
22526;DHT22;11429;50.842;4.386;2023-05-10T10:15:25;13.90;99.90
22526;DHT22;11429;50.842;4.386;2023-05-10T10:17:52;13.90;99.90
22526;DHT22;11429;50.842;4.386;2023-05-10T10:20:19;13.70;99.90
22526;DHT22;11429;50.842;4.386;2023-05-10T10:22:46;13.80;99.90
22526;DHT22;11429;50.842;4.386;2023-05-10T10:25:14;13.80;99.90
22526;DHT22;11429;50.842;4.386;2023-05-10T10:30:37;14.00;99.90
22526;DHT22;11429;50.842;4.386;2023-05-10T10:35:50;14.10;99.90
22526;DHT22;11429;50.842;4.386;2023-05-10T10:38:16;14.40;99.90
22526;DHT22;11429;50.842;4.386;2023-05-10T10:40:42;14.10;99.90
22526;DHT22;11429;50.842;4.386;2023-05-10T10:43:22;14.10;99.90
22526;DHT22;11429;50.842;4.386;2023-05-10T10:46:15;14.50;99.90
22526;DHT22;11429;50.842;4.386;2023-05-10T10:48:48;14.70;99.90
22526;DHT22;11429;50.842;4.386;2023-05-10T10:51:14;14.80;99.90
22526;DHT22;11429;50.842;4.386;2023-05-10T10:53:41;14.50;99.90
22526;DHT22;11429;50.842;4.386;2023-05-10T10:56:11;14.60;99.90
22526;DHT22;11429;50.842;4.386;2023-05-10T10:58:39;14.80;99.90
22526;DHT22;11429;50.842;4.386;2023-05-10T11:01:18;14.80;99.90
22526;DHT22;11429;50.842;4.386;2023-05-10T11:06:33;14.70;99.90
22526;DHT22;11429;50.842;4.386;2023-05-10T11:09:04;14.60;99.90
22526;DHT22;11429;50.842;4.386;2023-05-10T11:11:31;14.50;99.90
22526;DHT22;11429;50.842;4.386;2023-05-10T11:14:03;14.50;99.90
22526;DHT22;11429;50.842;4.386;2023-05-10T11:16:43;14.30;99.90
22526;DHT22;11429;50.842;4.386;2023-05-10T11:19:11;14.30;99.90
22526;DHT22;11429;50.842;4.386;2023-05-10T11:24:31;14.80;99.90
22526;DHT22;11429;50.842;4.386;2023-05-10T11:26:57;15.20;99.90
22526;DHT22;11429;50.842;4.386;2023-05-10T11:29:22;15.30;99.90
22526;DHT22;11429;50.842;4.386;2023-05-10T11:31:49;15.20;99.90
22526;DHT22;11429;50.842;4.386;2023-05-10T11:34:26;15.40;99.90
22526;DHT22;11429;50.842;4.386;2023-05-10T11:36:54;15.50;99.90
22526;DHT22;11429;50.842;4.386;2023-05-10T11:39:20;15.60;99.90
22526;DHT22;11429;50.842;4.386;2023-05-10T11:41:50;16.00;99.90
22526;DHT22;11429;50.842;4.386;2023-05-10T11:44:15;16.10;99.90
22526;DHT22;11429;50.842;4.386;2023-05-10T11:46:41;15.90;99.90
22526;DHT22;11429;50.842;4.386;2023-05-10T11:49:07;16.00;99.90
22526;DHT22;11429;50.842;4.386;2023-05-10T11:51:34;16.00;99.90
22526;DHT22;11429;50.842;4.386;2023-05-10T11:54:05;16.50;99.90
22526;DHT22;11429;50.842;4.386;2023-05-10T11:56:32;16.60;99.90
22526;DHT22;11429;50.842;4.386;2023-05-10T11:58:59;16.60;99.90
22526;DHT22;11429;50.842;4.386;2023-05-10T12:01:28;16.40;99.90
22526;DHT22;11429;50.842;4.386;2023-05-10T12:03:55;16.10;99.90
22526;DHT22;11429;50.842;4.386;2023-05-10T12:06:27;16.10;99.90
22526;DHT22;11429;50.842;4.386;2023-05-10T12:08:52;16.40;99.90
22526;DHT22;11429;50.842;4.386;2023-05-10T12:11:19;16.30;99.90
22526;DHT22;11429;50.842;4.386;2023-05-10T12:13:47;16.30;99.90
22526;DHT22;11429;50.842;4.386;2023-05-10T12:16:24;16.20;99.90
22526;DHT22;11429;50.842;4.386;2023-05-10T12:18:55;16.40;99.90
22526;DHT22;11429;50.842;4.386;2023-05-10T12:21:21;16.60;99.90
22526;DHT22;11429;50.842;4.386;2023-05-10T12:23:50;16.40;99.90
22526;DHT22;11429;50.842;4.386;2023-05-10T12:26:16;17.00;99.90
22526;DHT22;11429;50.842;4.386;2023-05-10T12:28:42;17.20;99.90
22526;DHT22;11429;50.842;4.386;2023-05-10T12:31:08;17.20;99.90
22526;DHT22;11429;50.842;4.386;2023-05-10T12:33:38;17.40;99.90
22526;DHT22;11429;50.842;4.386;2023-05-10T12:36:05;17.40;99.90
22526;DHT22;11429;50.842;4.386;2023-05-10T12:38:34;17.60;99.90
22526;DHT22;11429;50.842;4.386;2023-05-10T12:41:02;17.50;99.90
22526;DHT22;11429;50.842;4.386;2023-05-10T12:43:29;17.40;99.90
22526;DHT22;11429;50.842;4.386;2023-05-10T12:45:54;17.60;99.90
22526;DHT22;11429;50.842;4.386;2023-05-10T12:48:20;17.40;99.90
22526;DHT22;11429;50.842;4.386;2023-05-10T12:50:46;17.70;99.90
22526;DHT22;11429;50.842;4.386;2023-05-10T12:53:16;18.00;99.90
22526;DHT22;11429;50.842;4.386;2023-05-10T12:55:42;17.90;99.90
22526;DHT22;11429;50.842;4.386;2023-05-10T12:58:08;17.90;99.90
22526;DHT22;11429;50.842;4.386;2023-05-10T13:00:34;17.90;99.90
22526;DHT22;11429;50.842;4.386;2023-05-10T13:03:00;17.90;99.90
22526;DHT22;11429;50.842;4.386;2023-05-10T13:05:25;17.80;99.90
22526;DHT22;11429;50.842;4.386;2023-05-10T13:07:51;17.80;99.90
22526;DHT22;11429;50.842;4.386;2023-05-10T13:10:17;17.50;99.90
22526;DHT22;11429;50.842;4.386;2023-05-10T13:12:42;17.40;99.90
22526;DHT22;11429;50.842;4.386;2023-05-10T13:15:08;17.30;99.90
22526;DHT22;11429;50.842;4.386;2023-05-10T13:17:34;17.60;99.90
22526;DHT22;11429;50.842;4.386;2023-05-10T13:20:00;18.20;99.90
22526;DHT22;11429;50.842;4.386;2023-05-10T13:22:26;17.70;99.90
22526;DHT22;11429;50.842;4.386;2023-05-10T13:24:51;18.10;99.90
22526;DHT22;11429;50.842;4.386;2023-05-10T13:27:17;18.00;99.90
22526;DHT22;11429;50.842;4.386;2023-05-10T13:29:43;18.00;99.90
22526;DHT22;11429;50.842;4.386;2023-05-10T13:32:08;17.80;99.90
22526;DHT22;11429;50.842;4.386;2023-05-10T13:34:34;17.50;99.90
22526;DHT22;11429;50.842;4.386;2023-05-10T13:37:01;17.70;99.90
22526;DHT22;11429;50.842;4.386;2023-05-10T13:39:29;17.70;99.90
22526;DHT22;11429;50.842;4.386;2023-05-10T13:41:58;17.70;99.90
22526;DHT22;11429;50.842;4.386;2023-05-10T13:44:24;17.90;99.90
22526;DHT22;11429;50.842;4.386;2023-05-10T13:46:50;17.80;99.90
22526;DHT22;11429;50.842;4.386;2023-05-10T13:49:15;17.50;99.90
22526;DHT22;11429;50.842;4.386;2023-05-10T13:51:43;17.40;99.90
22526;DHT22;11429;50.842;4.386;2023-05-10T13:54:09;17.70;99.90
22526;DHT22;11429;50.842;4.386;2023-05-10T13:56:35;18.20;99.90
22526;DHT22;11429;50.842;4.386;2023-05-10T13:59:00;18.10;99.90
22526;DHT22;11429;50.842;4.386;2023-05-10T14:01:26;18.30;99.90
22526;DHT22;11429;50.842;4.386;2023-05-10T14:03:52;18.30;99.90
22526;DHT22;11429;50.842;4.386;2023-05-10T14:06:18;18.60;99.90
22526;DHT22;11429;50.842;4.386;2023-05-10T14:08:43;18.40;99.90
22526;DHT22;11429;50.842;4.386;2023-05-10T14:11:09;18.30;99.90
22526;DHT22;11429;50.842;4.386;2023-05-10T14:13:35;18.10;99.90
22526;DHT22;11429;50.842;4.386;2023-05-10T14:16:00;17.90;99.90
22526;DHT22;11429;50.842;4.386;2023-05-10T14:18:27;17.80;99.90
22526;DHT22;11429;50.842;4.386;2023-05-10T14:20:52;17.70;99.90
22526;DHT22;11429;50.842;4.386;2023-05-10T14:23:18;17.60;99.90
22526;DHT22;11429;50.842;4.386;2023-05-10T14:25:50;17.30;99.90
22526;DHT22;11429;50.842;4.386;2023-05-10T14:28:16;17.30;99.90
22526;DHT22;11429;50.842;4.386;2023-05-10T14:30:43;17.50;99.90
22526;DHT22;11429;50.842;4.386;2023-05-10T14:33:08;17.70;99.90
22526;DHT22;11429;50.842;4.386;2023-05-10T14:35:34;17.90;99.90
22526;DHT22;11429;50.842;4.386;2023-05-10T14:38:00;17.90;99.90
22526;DHT22;11429;50.842;4.386;2023-05-10T14:40:25;18.00;99.90
22526;DHT22;11429;50.842;4.386;2023-05-10T14:42:51;18.40;99.90
22526;DHT22;11429;50.842;4.386;2023-05-10T14:45:18;18.40;99.90
22526;DHT22;11429;50.842;4.386;2023-05-10T14:47:44;18.20;99.90
22526;DHT22;11429;50.842;4.386;2023-05-10T14:50:10;17.90;99.90
22526;DHT22;11429;50.842;4.386;2023-05-10T14:52:35;17.80;99.90
22526;DHT22;11429;50.842;4.386;2023-05-10T14:55:01;17.30;99.90
22526;DHT22;11429;50.842;4.386;2023-05-10T14:57:27;17.30;99.90
22526;DHT22;11429;50.842;4.386;2023-05-10T14:59:55;17.10;99.90
22526;DHT22;11429;50.842;4.386;2023-05-10T15:02:21;17.10;99.90
22526;DHT22;11429;50.842;4.386;2023-05-10T15:04:47;17.10;99.90
22526;DHT22;11429;50.842;4.386;2023-05-10T15:07:13;17.00;99.90
22526;DHT22;11429;50.842;4.386;2023-05-10T15:09:40;16.80;99.90
22526;DHT22;11429;50.842;4.386;2023-05-10T15:12:06;16.80;99.90
22526;DHT22;11429;50.842;4.386;2023-05-10T15:14:32;16.70;99.90
22526;DHT22;11429;50.842;4.386;2023-05-10T15:16:58;16.70;99.90
22526;DHT22;11429;50.842;4.386;2023-05-10T15:19:24;16.60;99.90
22526;DHT22;11429;50.842;4.386;2023-05-10T15:21:50;16.20;99.90
22526;DHT22;11429;50.842;4.386;2023-05-10T15:24:16;15.90;99.90
22526;DHT22;11429;50.842;4.386;2023-05-10T15:26:41;15.90;99.90
22526;DHT22;11429;50.842;4.386;2023-05-10T15:29:07;15.90;99.90
22526;DHT22;11429;50.842;4.386;2023-05-10T15:31:33;16.00;99.90
22526;DHT22;11429;50.842;4.386;2023-05-10T15:34:01;16.00;99.90
22526;DHT22;11429;50.842;4.386;2023-05-10T15:36:27;16.30;99.90
22526;DHT22;11429;50.842;4.386;2023-05-10T15:38:54;16.10;99.90
22526;DHT22;11429;50.842;4.386;2023-05-10T15:41:20;16.00;99.90
22526;DHT22;11429;50.842;4.386;2023-05-10T15:43:46;15.90;99.90
22526;DHT22;11429;50.842;4.386;2023-05-10T15:46:11;16.10;99.90
22526;DHT22;11429;50.842;4.386;2023-05-10T15:48:37;16.40;99.90
22526;DHT22;11429;50.842;4.386;2023-05-10T15:51:04;16.40;99.90
22526;DHT22;11429;50.842;4.386;2023-05-10T15:53:30;16.40;99.90